sensor_id;sensor_type;location;lat;lon;timestamp;pressure;altitude;pressure_sealevel;temperature;humidity
7309;BME280;3695;53.330;9.876;2022-11-20T00:01:21;105304.88;;;0.84;100.00
7309;BME280;3695;53.330;9.876;2022-11-20T00:03:48;105285.13;;;0.89;100.00
7309;BME280;3695;53.330;9.876;2022-11-20T00:06:18;105241.91;;;0.75;100.00
7309;BME280;3695;53.330;9.876;2022-11-20T00:08:46;105201.94;;;0.72;100.00
7309;BME280;3695;53.330;9.876;2022-11-20T00:11:14;105181.63;;;0.67;100.00
7309;BME280;3695;53.330;9.876;2022-11-20T00:13:41;105149.88;;;0.57;100.00
7309;BME280;3695;53.330;9.876;2022-11-20T00:16:10;105148.72;;;0.66;100.00
7309;BME280;3695;53.330;9.876;2022-11-20T00:18:37;105160.66;;;0.82;100.00
7309;BME280;3695;53.330;9.876;2022-11-20T00:21:04;105122.50;;;0.79;100.00
7309;BME280;3695;53.330;9.876;2022-11-20T00:23:32;105061.66;;;0.60;100.00
7309;BME280;3695;53.330;9.876;2022-11-20T00:26:02;105050.75;;;0.68;100.00
7309;BME280;3695;53.330;9.876;2022-11-20T00:28:29;105020.84;;;0.57;100.00
7309;BME280;3695;53.330;9.876;2022-11-20T00:31:00;105031.22;;;0.66;100.00
7309;BME280;3695;53.330;9.876;2022-11-20T00:33:27;105051.16;;;0.82;100.00
7309;BME280;3695;53.330;9.876;2022-11-20T00:35:59;105020.84;;;0.83;100.00
7309;BME280;3695;53.330;9.876;2022-11-20T00:38:25;105001.28;;;0.83;100.00
7309;BME280;3695;53.330;9.876;2022-11-20T00:40:56;105002.63;;;0.96;100.00
7309;BME280;3695;53.330;9.876;2022-11-20T00:43:23;104937.28;;;0.80;100.00
7309;BME280;3695;53.330;9.876;2022-11-20T00:45:49;104875.75;;;0.58;100.00
7309;BME280;3695;53.330;9.876;2022-11-20T00:48:16;104896.50;;;0.75;100.00
7309;BME280;3695;53.330;9.876;2022-11-20T00:50:42;104889.53;;;0.71;100.00
7309;BME280;3695;53.330;9.876;2022-11-20T00:53:08;104905.19;;;0.81;100.00
7309;BME280;3695;53.330;9.876;2022-11-20T00:55:35;104901.53;;;0.84;100.00
7309;BME280;3695;53.330;9.876;2022-11-20T00:58:03;104866.44;;;0.70;100.00
7309;BME280;3695;53.330;9.876;2022-11-20T01:00:29;104885.16;;;0.93;100.00
7309;BME280;3695;53.330;9.876;2022-11-20T01:02:55;104863.81;;;0.93;100.00
7309;BME280;3695;53.330;9.876;2022-11-20T01:05:22;104845.03;;;0.94;100.00
7309;BME280;3695;53.330;9.876;2022-11-20T01:07:48;104771.22;;;0.69;100.00
7309;BME280;3695;53.330;9.876;2022-11-20T01:10:15;104777.56;;;0.89;100.00
7309;BME280;3695;53.330;9.876;2022-11-20T01:12:42;104741.28;;;0.84;100.00
7309;BME280;3695;53.330;9.876;2022-11-20T01:15:10;104701.09;;;0.63;100.00
7309;BME280;3695;53.330;9.876;2022-11-20T01:17:36;104727.06;;;0.83;100.00
7309;BME280;3695;53.330;9.876;2022-11-20T01:20:03;104701.56;;;0.75;100.00
7309;BME280;3695;53.330;9.876;2022-11-20T01:22:30;104676.44;;;0.57;100.00
7309;BME280;3695;53.330;9.876;2022-11-20T01:24:56;104710.16;;;0.59;100.00
7309;BME280;3695;53.330;9.876;2022-11-20T01:27:23;104721.19;;;0.50;100.00
7309;BME280;3695;53.330;9.876;2022-11-20T01:29:49;104740.88;;;0.46;100.00
7309;BME280;3695;53.330;9.876;2022-11-20T01:32:17;104775.97;;;0.60;100.00
7309;BME280;3695;53.330;9.876;2022-11-20T01:34:44;104797.81;;;0.72;100.00
7309;BME280;3695;53.330;9.876;2022-11-20T01:37:10;104729.78;;;0.34;100.00
7309;BME280;3695;53.330;9.876;2022-11-20T01:39:37;104765.13;;;0.40;100.00
7309;BME280;3695;53.330;9.876;2022-11-20T01:42:03;104834.59;;;0.63;100.00
7309;BME280;3695;53.330;9.876;2022-11-20T01:44:51;104834.72;;;0.60;100.00
7309;BME280;3695;53.330;9.876;2022-11-20T01:47:33;104861.69;;;0.78;100.00
7309;BME280;3695;53.330;9.876;2022-11-20T01:50:05;104848.22;;;0.81;100.00
7309;BME280;3695;53.330;9.876;2022-11-20T01:52:35;104804.19;;;0.68;100.00
7309;BME280;3695;53.330;9.876;2022-11-20T01:55:06;104779.56;;;0.59;100.00
7309;BME280;3695;53.330;9.876;2022-11-20T01:57:34;104779.56;;;0.59;100.00
7309;BME280;3695;53.330;9.876;2022-11-20T02:00:04;104798.75;;;0.71;100.00
7309;BME280;3695;53.330;9.876;2022-11-20T02:02:33;104786.31;;;0.70;100.00
7309;BME280;3695;53.330;9.876;2022-11-20T02:05:04;104779.94;;;0.74;100.00
7309;BME280;3695;53.330;9.876;2022-11-20T02:07:36;104752.31;;;0.75;100.00
7309;BME280;3695;53.330;9.876;2022-11-20T02:10:03;104733.50;;;0.78;100.00
7309;BME280;3695;53.330;9.876;2022-11-20T02:12:29;104726.00;;;0.87;100.00
7309;BME280;3695;53.330;9.876;2022-11-20T02:15:14;104653.84;;;0.66;100.00
7309;BME280;3695;53.330;9.876;2022-11-20T02:17:42;104627.28;;;0.62;100.00
7309;BME280;3695;53.330;9.876;2022-11-20T02:20:09;104560.91;;;0.30;100.00
7309;BME280;3695;53.330;9.876;2022-11-20T02:22:38;104606.59;;;0.44;100.00
7309;BME280;3695;53.330;9.876;2022-11-20T02:25:09;104650.78;;;0.53;100.00
7309;BME280;3695;53.330;9.876;2022-11-20T02:27:36;104699.13;;;0.69;100.00
7309;BME280;3695;53.330;9.876;2022-11-20T02:30:04;104701.75;;;0.70;100.00
7309;BME280;3695;53.330;9.876;2022-11-20T02:32:34;104690.31;;;0.67;100.00
7309;BME280;3695;53.330;9.876;2022-11-20T02:35:07;104673.66;;;0.60;100.00
7309;BME280;3695;53.330;9.876;2022-11-20T02:37:36;104635.38;;;0.36;100.00
7309;BME280;3695;53.330;9.876;2022-11-20T02:40:04;104695.41;;;0.49;100.00
7309;BME280;3695;53.330;9.876;2022-11-20T02:42:32;104723.03;;;0.48;100.00
7309;BME280;3695;53.330;9.876;2022-11-20T02:44:59;104740.47;;;0.58;100.00
7309;BME280;3695;53.330;9.876;2022-11-20T02:47:25;104771.41;;;0.64;100.00
7309;BME280;3695;53.330;9.876;2022-11-20T02:49:53;104723.13;;;0.45;100.00
7309;BME280;3695;53.330;9.876;2022-11-20T02:52:19;104714.03;;;0.26;100.00
7309;BME280;3695;53.330;9.876;2022-11-20T02:54:45;104741.75;;;0.22;100.00
7309;BME280;3695;53.330;9.876;2022-11-20T02:57:12;104805.25;;;0.37;100.00
7309;BME280;3695;53.330;9.876;2022-11-20T02:59:40;104857.41;;;0.47;100.00
7309;BME280;3695;53.330;9.876;2022-11-20T03:02:06;104850.75;;;0.34;100.00
7309;BME280;3695;53.330;9.876;2022-11-20T03:04:33;104881.53;;;0.44;100.00
7309;BME280;3695;53.330;9.876;2022-11-20T03:06:59;104933.56;;;0.59;100.00
7309;BME280;3695;53.330;9.876;2022-11-20T03:09:26;104934.31;;;0.62;100.00
7309;BME280;3695;53.330;9.876;2022-11-20T03:11:52;104891.22;;;0.48;100.00
7309;BME280;3695;53.330;9.876;2022-11-20T03:14:18;104851.63;;;0.35;100.00
7309;BME280;3695;53.330;9.876;2022-11-20T03:16:46;104906.97;;;0.56;100.00
7309;BME280;3695;53.330;9.876;2022-11-20T03:19:13;104879.69;;;0.46;100.00
7309;BME280;3695;53.330;9.876;2022-11-20T03:21:39;104865.94;;;0.32;100.00
7309;BME280;3695;53.330;9.876;2022-11-20T03:24:06;104905.31;;;0.52;100.00
7309;BME280;3695;53.330;9.876;2022-11-20T03:26:33;104942.28;;;0.64;100.00
7309;BME280;3695;53.330;9.876;2022-11-20T03:29:02;104917.69;;;0.54;100.00
7309;BME280;3695;53.330;9.876;2022-11-20T03:31:31;104906.91;;;0.57;100.00
7309;BME280;3695;53.330;9.876;2022-11-20T03:34:00;104917.97;;;0.72;100.00
7309;BME280;3695;53.330;9.876;2022-11-20T03:36:27;104881.28;;;0.52;100.00
7309;BME280;3695;53.330;9.876;2022-11-20T03:38:54;104872.69;;;0.42;100.00
7309;BME280;3695;53.330;9.876;2022-11-20T03:41:23;104892.56;;;0.34;100.00
7309;BME280;3695;53.330;9.876;2022-11-20T03:43:51;104943.69;;;0.49;100.00
7309;BME280;3695;53.330;9.876;2022-11-20T03:46:19;104995.47;;;0.70;100.00
7309;BME280;3695;53.330;9.876;2022-11-20T03:48:46;104992.84;;;0.69;100.00
7309;BME280;3695;53.330;9.876;2022-11-20T03:51:16;104952.59;;;0.48;100.00
7309;BME280;3695;53.330;9.876;2022-11-20T03:53:44;104968.22;;;0.60;100.00
7309;BME280;3695;53.330;9.876;2022-11-20T03:56:13;104961.91;;;0.63;100.00
7309;BME280;3695;53.330;9.876;2022-11-20T03:58:40;104945.00;;;0.62;100.00
7309;BME280;3695;53.330;9.876;2022-11-20T04:01:08;104942.94;;;0.71;100.00
7309;BME280;3695;53.330;9.876;2022-11-20T04:03:35;104944.38;;;0.81;100.00
7309;BME280;3695;53.330;9.876;2022-11-20T04:06:04;104899.78;;;0.58;100.00
7309;BME280;3695;53.330;9.876;2022-11-20T04:08:32;104900.84;;;0.52;100.00
7309;BME280;3695;53.330;9.876;2022-11-20T04:11:08;104917.16;;;0.43;100.00
7309;BME280;3695;53.330;9.876;2022-11-20T04:13:35;104949.94;;;0.47;100.00
7309;BME280;3695;53.330;9.876;2022-11-20T04:16:01;104983.63;;;0.52;100.00
7309;BME280;3695;53.330;9.876;2022-11-20T04:18:28;105031.22;;;0.66;100.00
7309;BME280;3695;53.330;9.876;2022-11-20T04:20:56;105033.94;;;0.65;100.00
7309;BME280;3695;53.330;9.876;2022-11-20T04:23:22;105034.81;;;0.65;100.00
7309;BME280;3695;53.330;9.876;2022-11-20T04:25:50;105013.84;;;0.53;100.00
7309;BME280;3695;53.330;9.876;2022-11-20T04:28:17;105009.69;;;0.43;100.00
7309;BME280;3695;53.330;9.876;2022-11-20T04:30:43;105099.78;;;0.66;100.00
7309;BME280;3695;53.330;9.876;2022-11-20T04:33:10;105106.22;;;0.58;100.00
7309;BME280;3695;53.330;9.876;2022-11-20T04:35:37;105149.31;;;0.76;100.00
7309;BME280;3695;53.330;9.876;2022-11-20T04:38:04;105180.84;;;0.92;100.00
7309;BME280;3695;53.330;9.876;2022-11-20T04:40:30;105160.28;;;0.94;100.00
7309;BME280;3695;53.330;9.876;2022-11-20T04:42:58;105121.19;;;0.92;100.00
7309;BME280;3695;53.330;9.876;2022-11-20T04:45:25;105064.66;;;0.78;100.00
7309;BME280;3695;53.330;9.876;2022-11-20T04:47:52;105025.22;;;0.59;100.00
7309;BME280;3695;53.330;9.876;2022-11-20T04:50:18;105088.59;;;0.81;100.00
7309;BME280;3695;53.330;9.876;2022-11-20T04:52:45;105113.25;;;0.89;100.00
7309;BME280;3695;53.330;9.876;2022-11-20T04:55:11;105144.00;;;1.04;100.00
7309;BME280;3695;53.330;9.876;2022-11-20T04:57:38;105114.84;;;0.96;100.00
7309;BME280;3695;53.330;9.876;2022-11-20T05:00:07;105065.78;;;0.71;100.00
7309;BME280;3695;53.330;9.876;2022-11-20T05:02:34;105078.47;;;0.64;100.00
7309;BME280;3695;53.330;9.876;2022-11-20T05:05:00;105117.78;;;0.59;100.00
7309;BME280;3695;53.330;9.876;2022-11-20T05:07:27;105172.88;;;0.61;100.00
7309;BME280;3695;53.330;9.876;2022-11-20T05:09:53;105213.97;;;0.57;100.00
7309;BME280;3695;53.330;9.876;2022-11-20T05:12:20;105253.75;;;0.67;100.00
7309;BME280;3695;53.330;9.876;2022-11-20T05:14:46;105339.50;;;0.87;100.00
7309;BME280;3695;53.330;9.876;2022-11-20T05:17:14;105317.03;;;0.63;100.00
7309;BME280;3695;53.330;9.876;2022-11-20T05:19:40;105388.81;;;0.75;100.00
7309;BME280;3695;53.330;9.876;2022-11-20T05:22:07;105409.00;;;0.85;100.00
7309;BME280;3695;53.330;9.876;2022-11-20T05:24:33;105425.72;;;0.93;100.00
7309;BME280;3695;53.330;9.876;2022-11-20T05:27:00;105399.88;;;0.94;100.00
7309;BME280;3695;53.330;9.876;2022-11-20T05:29:26;105383.09;;;0.89;100.00
7309;BME280;3695;53.330;9.876;2022-11-20T05:31:52;105327.63;;;0.66;100.00
7309;BME280;3695;53.330;9.876;2022-11-20T05:34:20;105312.13;;;0.48;100.00
7309;BME280;3695;53.330;9.876;2022-11-20T05:36:47;105366.69;;;0.36;100.00
7309;BME280;3695;53.330;9.876;2022-11-20T05:39:13;105500.34;;;0.66;100.00
7309;BME280;3695;53.330;9.876;2022-11-20T05:41:39;105500.00;;;0.42;100.00
7309;BME280;3695;53.330;9.876;2022-11-20T05:44:06;105533.25;;;0.29;100.00
7309;BME280;3695;53.330;9.876;2022-11-20T05:46:32;105652.75;;;0.58;100.00
7309;BME280;3695;53.330;9.876;2022-11-20T05:48:59;105731.03;;;0.60;100.00
7309;BME280;3695;53.330;9.876;2022-11-20T05:51:27;105831.16;;;0.84;100.00
7309;BME280;3695;53.330;9.876;2022-11-20T05:53:53;105786.44;;;0.50;100.00
7309;BME280;3695;53.330;9.876;2022-11-20T05:56:21;105865.19;;;0.74;100.00
7309;BME280;3695;53.330;9.876;2022-11-20T05:58:48;105823.00;;;0.44;100.00
7309;BME280;3695;53.330;9.876;2022-11-20T06:01:16;105914.16;;;0.75;100.00
7309;BME280;3695;53.330;9.876;2022-11-20T06:03:44;105908.97;;;0.66;100.00
7309;BME280;3695;53.330;9.876;2022-11-20T06:06:13;105936.53;;;0.68;100.00
7309;BME280;3695;53.330;9.876;2022-11-20T06:08:41;105959.63;;;0.72;100.00
7309;BME280;3695;53.330;9.876;2022-11-20T06:11:09;105943.00;;;0.54;100.00
7309;BME280;3695;53.330;9.876;2022-11-20T06:13:36;106033.38;;;0.80;100.00
7309;BME280;3695;53.330;9.876;2022-11-20T06:16:03;106043.34;;;0.71;100.00
7309;BME280;3695;53.330;9.876;2022-11-20T06:18:30;106044.38;;;0.62;100.00
7309;BME280;3695;53.330;9.876;2022-11-20T06:21:01;106072.00;;;0.59;100.00
7309;BME280;3695;53.330;9.876;2022-11-20T06:23:29;106151.81;;;0.81;100.00
7309;BME280;3695;53.330;9.876;2022-11-20T06:25:57;106152.78;;;0.75;100.00
7309;BME280;3695;53.330;9.876;2022-11-20T06:28:24;106150.38;;;0.58;100.00
7309;BME280;3695;53.330;9.876;2022-11-20T06:30:50;106147.88;;;0.43;100.00
7309;BME280;3695;53.330;9.876;2022-11-20T06:33:17;106257.13;;;0.65;100.00
7309;BME280;3695;53.330;9.876;2022-11-20T06:35:43;106321.19;;;0.68;100.00
7309;BME280;3695;53.330;9.876;2022-11-20T06:38:10;106341.72;;;0.64;100.00
7309;BME280;3695;53.330;9.876;2022-11-20T06:40:39;106364.91;;;0.62;100.00
7309;BME280;3695;53.330;9.876;2022-11-20T06:43:07;106416.38;;;0.76;100.00
7309;BME280;3695;53.330;9.876;2022-11-20T06:45:33;106441.25;;;0.81;100.00
7309;BME280;3695;53.330;9.876;2022-11-20T06:48:00;106451.88;;;0.87;100.00
7309;BME280;3695;53.330;9.876;2022-11-20T06:50:26;106454.53;;;0.90;100.00
7309;BME280;3695;53.330;9.876;2022-11-20T06:52:53;106439.41;;;0.89;100.00
7309;BME280;3695;53.330;9.876;2022-11-20T06:55:19;106395.94;;;0.74;100.00
7309;BME280;3695;53.330;9.876;2022-11-20T06:57:46;106396.75;;;0.79;100.00
7309;BME280;3695;53.330;9.876;2022-11-20T07:00:14;106381.66;;;0.76;100.00
7309;BME280;3695;53.330;9.876;2022-11-20T07:02:41;106350.69;;;0.57;100.00
7309;BME280;3695;53.330;9.876;2022-11-20T07:05:07;106424.34;;;0.81;100.00
7309;BME280;3695;53.330;9.876;2022-11-20T07:07:34;106413.84;;;0.62;100.00
7309;BME280;3695;53.330;9.876;2022-11-20T07:10:00;106445.88;;;0.66;100.00
7309;BME280;3695;53.330;9.876;2022-11-20T07:12:26;106472.53;;;0.72;100.00
7309;BME280;3695;53.330;9.876;2022-11-20T07:14:53;106484.09;;;0.75;100.00
7309;BME280;3695;53.330;9.876;2022-11-20T07:17:21;106502.75;;;0.80;100.00
7309;BME280;3695;53.330;9.876;2022-11-20T07:19:47;106505.44;;;0.78;100.00
7309;BME280;3695;53.330;9.876;2022-11-20T07:22:14;106520.50;;;0.87;100.00
7309;BME280;3695;53.330;9.876;2022-11-20T07:24:40;106509.84;;;0.81;100.00
7309;BME280;3695;53.330;9.876;2022-11-20T07:27:07;106486.78;;;0.74;100.00
7309;BME280;3695;53.330;9.876;2022-11-20T07:29:33;106432.63;;;0.55;100.00
7309;BME280;3695;53.330;9.876;2022-11-20T07:32:00;106477.94;;;0.66;100.00
7309;BME280;3695;53.330;9.876;2022-11-20T07:34:27;106527.69;;;0.79;100.00
7309;BME280;3695;53.330;9.876;2022-11-20T07:36:54;106548.97;;;0.88;100.00
7309;BME280;3695;53.330;9.876;2022-11-20T07:39:20;106549.94;;;0.79;100.00
7309;BME280;3695;53.330;9.876;2022-11-20T07:41:47;106573.94;;;0.87;100.00
7309;BME280;3695;53.330;9.876;2022-11-20T07:44:13;106558.00;;;0.76;100.00
7309;BME280;3695;53.330;9.876;2022-11-20T07:46:40;106587.28;;;0.90;100.00
7309;BME280;3695;53.330;9.876;2022-11-20T07:49:06;106548.22;;;0.72;100.00
7309;BME280;3695;53.330;9.876;2022-11-20T07:51:34;106574.84;;;0.83;100.00
7309;BME280;3695;53.330;9.876;2022-11-20T07:54:00;106601.50;;;0.93;100.00
7309;BME280;3695;53.330;9.876;2022-11-20T07:56:27;106605.03;;;1.00;100.00
7309;BME280;3695;53.330;9.876;2022-11-20T07:58:53;106562.28;;;0.97;100.00
7309;BME280;3695;53.330;9.876;2022-11-20T08:01:20;106513.41;;;0.83;100.00
7309;BME280;3695;53.330;9.876;2022-11-20T08:03:46;106497.38;;;0.83;100.00
7309;BME280;3695;53.330;9.876;2022-11-20T08:06:12;106473.38;;;0.78;100.00
7309;BME280;3695;53.330;9.876;2022-11-20T08:08:41;106491.94;;;0.95;100.00
7309;BME280;3695;53.330;9.876;2022-11-20T08:11:07;106499.00;;;1.01;100.00
7309;BME280;3695;53.330;9.876;2022-11-20T08:13:51;106482.94;;;1.02;100.00
7309;BME280;3695;53.330;9.876;2022-11-20T08:16:35;106396.81;;;0.74;100.00
7309;BME280;3695;53.330;9.876;2022-11-20T08:19:02;106494.44;;;1.10;100.00
7309;BME280;3695;53.330;9.876;2022-11-20T08:21:30;106426.06;;;0.88;100.00
7309;BME280;3695;53.330;9.876;2022-11-20T08:23:58;106415.47;;;0.79;100.00
7309;BME280;3695;53.330;9.876;2022-11-20T08:26:25;106424.41;;;0.75;100.00
7309;BME280;3695;53.330;9.876;2022-11-20T08:28:53;106491.00;;;0.99;100.00
7309;BME280;3695;53.330;9.876;2022-11-20T08:31:20;106440.50;;;0.69;100.00
7309;BME280;3695;53.330;9.876;2022-11-20T08:33:47;106479.66;;;0.73;100.00
7309;BME280;3695;53.330;9.876;2022-11-20T08:36:13;106511.69;;;0.74;100.00
7309;BME280;3695;53.330;9.876;2022-11-20T08:38:40;106506.47;;;0.60;100.00
7309;BME280;3695;53.330;9.876;2022-11-20T08:41:07;106518.97;;;0.57;100.00
7309;BME280;3695;53.330;9.876;2022-11-20T08:43:55;106617.63;;;0.83;100.00
7309;BME280;3695;53.330;9.876;2022-11-20T08:46:23;106572.34;;;0.65;100.00
7309;BME280;3695;53.330;9.876;2022-11-20T08:48:49;106641.63;;;0.89;100.00
7309;BME280;3695;53.330;9.876;2022-11-20T08:51:16;106585.69;;;0.65;100.00
7309;BME280;3695;53.330;9.876;2022-11-20T08:53:43;106639.03;;;0.77;100.00
7309;BME280;3695;53.330;9.876;2022-11-20T08:56:11;106669.25;;;0.86;100.00
7309;BME280;3695;53.330;9.876;2022-11-20T08:58:38;106702.16;;;0.99;100.00
7309;BME280;3695;53.330;9.876;2022-11-20T09:01:05;106731.38;;;1.23;100.00
7309;BME280;3695;53.330;9.876;2022-11-20T09:03:31;106617.56;;;0.89;100.00
7309;BME280;3695;53.330;9.876;2022-11-20T09:05:58;106616.66;;;0.96;100.00
7309;BME280;3695;53.330;9.876;2022-11-20T09:08:25;106620.19;;;0.98;100.00
7309;BME280;3695;53.330;9.876;2022-11-20T09:10:52;106633.44;;;1.10;100.00
7309;BME280;3695;53.330;9.876;2022-11-20T09:13:19;106579.22;;;0.96;100.00
7309;BME280;3695;53.330;9.876;2022-11-20T09:15:46;106631.53;;;1.26;100.00
7309;BME280;3695;53.330;9.876;2022-11-20T09:18:13;106571.91;;;1.16;100.00
7309;BME280;3695;53.330;9.876;2022-11-20T09:20:39;106504.28;;;1.05;100.00
7309;BME280;3695;53.330;9.876;2022-11-20T09:23:06;106513.00;;;1.22;100.00
7309;BME280;3695;53.330;9.876;2022-11-20T09:25:32;106494.22;;;1.29;100.00
7309;BME280;3695;53.330;9.876;2022-11-20T09:27:59;106375.25;;;0.89;100.00
7309;BME280;3695;53.330;9.876;2022-11-20T09:30:27;106439.91;;;1.23;100.00
7309;BME280;3695;53.330;9.876;2022-11-20T09:32:53;106496.50;;;1.62;100.00
7309;BME280;3695;53.330;9.876;2022-11-20T09:35:20;106337.31;;;1.31;100.00
7309;BME280;3695;53.330;9.876;2022-11-20T09:37:47;106316.50;;;1.54;100.00
7309;BME280;3695;53.330;9.876;2022-11-20T09:40:19;106158.56;;;1.06;100.00
7309;BME280;3695;53.330;9.876;2022-11-20T09:42:54;106192.00;;;1.32;100.00
7309;BME280;3695;53.330;9.876;2022-11-20T09:45:30;106158.31;;;1.21;100.00
7309;BME280;3695;53.330;9.876;2022-11-20T09:48:14;106111.03;;;1.25;100.00
7309;BME280;3695;53.330;9.876;2022-11-20T09:50:45;106026.75;;;1.04;100.00
7309;BME280;3695;53.330;9.876;2022-11-20T09:53:22;106026.56;;;1.15;100.00
7309;BME280;3695;53.330;9.876;2022-11-20T09:55:50;105994.88;;;0.92;100.00
7309;BME280;3695;53.330;9.876;2022-11-20T09:58:27;106093.25;;;1.22;100.00
7309;BME280;3695;53.330;9.876;2022-11-20T10:01:05;106084.53;;;1.11;100.00
7309;BME280;3695;53.330;9.876;2022-11-20T10:03:40;106127.88;;;1.29;100.00
7309;BME280;3695;53.330;9.876;2022-11-20T10:06:13;106149.06;;;1.41;100.00
7309;BME280;3695;53.330;9.876;2022-11-20T10:08:47;106090.50;;;1.25;100.00
7309;BME280;3695;53.330;9.876;2022-11-20T10:11:19;106063.59;;;1.35;100.00
7309;BME280;3695;53.330;9.876;2022-11-20T10:14:03;105969.50;;;1.16;100.00
7309;BME280;3695;53.330;9.876;2022-11-20T10:16:41;106006.31;;;1.48;100.00
7309;BME280;3695;53.330;9.876;2022-11-20T10:19:23;105986.38;;;1.64;100.00
7309;BME280;3695;53.330;9.876;2022-11-20T10:22:01;105893.84;;;1.54;100.00
7309;BME280;3695;53.330;9.876;2022-11-20T10:24:44;105876.31;;;1.79;100.00
7309;BME280;3695;53.330;9.876;2022-11-20T10:27:25;105782.56;;;1.82;100.00
7309;BME280;3695;53.330;9.876;2022-11-20T10:30:01;105625.88;;;1.38;100.00
7309;BME280;3695;53.330;9.876;2022-11-20T10:32:33;105686.16;;;1.85;100.00
7309;BME280;3695;53.330;9.876;2022-11-20T10:35:05;105599.13;;;1.72;100.00
7309;BME280;3695;53.330;9.876;2022-11-20T10:37:35;105521.41;;;1.77;100.00
7309;BME280;3695;53.330;9.876;2022-11-20T10:40:19;105476.81;;;2.07;100.00
7309;BME280;3695;53.330;9.876;2022-11-20T10:42:49;105375.72;;;2.15;100.00
7309;BME280;3695;53.330;9.876;2022-11-20T10:45:27;105213.47;;;2.11;100.00
7309;BME280;3695;53.330;9.876;2022-11-20T10:48:11;104957.88;;;1.76;100.00
7309;BME280;3695;53.330;9.876;2022-11-20T10:50:48;104865.69;;;1.84;100.00
7309;BME280;3695;53.330;9.876;2022-11-20T10:53:20;104841.63;;;2.48;100.00
7309;BME280;3695;53.330;9.876;2022-11-20T10:55:57;104600.59;;;2.67;100.00
7309;BME280;3695;53.330;9.876;2022-11-20T10:58:35;104293.84;;;2.60;100.00
7309;BME280;3695;53.330;9.876;2022-11-20T11:01:14;104013.84;;;3.16;100.00
7309;BME280;3695;53.330;9.876;2022-11-20T11:03:42;103763.69;;;4.25;100.00
7309;BME280;3695;53.330;9.876;2022-11-20T11:06:14;103444.47;;;4.09;100.00
7309;BME280;3695;53.330;9.876;2022-11-20T11:08:46;103123.22;;;3.15;100.00
7309;BME280;3695;53.330;9.876;2022-11-20T11:11:21;102889.56;;;2.88;100.00
7309;BME280;3695;53.330;9.876;2022-11-20T11:13:48;102787.56;;;2.91;100.00
7309;BME280;3695;53.330;9.876;2022-11-20T11:16:25;102694.06;;;2.88;100.00
7309;BME280;3695;53.330;9.876;2022-11-20T11:19:03;102605.91;;;2.63;100.00
7309;BME280;3695;53.330;9.876;2022-11-20T11:21:30;102583.25;;;2.78;100.00
7309;BME280;3695;53.330;9.876;2022-11-20T11:23:59;102570.97;;;2.98;100.00
7309;BME280;3695;53.330;9.876;2022-11-20T11:26:25;102541.59;;;3.07;100.00
7309;BME280;3695;53.330;9.876;2022-11-20T11:28:54;102488.53;;;3.01;100.00
7309;BME280;3695;53.330;9.876;2022-11-20T11:31:25;102431.81;;;2.96;100.00
7309;BME280;3695;53.330;9.876;2022-11-20T11:34:02;102397.00;;;2.96;100.00
7309;BME280;3695;53.330;9.876;2022-11-20T11:36:29;102354.41;;;2.93;100.00
7309;BME280;3695;53.330;9.876;2022-11-20T11:38:56;102297.31;;;2.72;100.00
7309;BME280;3695;53.330;9.876;2022-11-20T11:41:24;102256.09;;;2.42;100.00
7309;BME280;3695;53.330;9.876;2022-11-20T11:43:54;102246.78;;;2.58;100.00
7309;BME280;3695;53.330;9.876;2022-11-20T11:46:43;102239.59;;;2.58;100.00
7309;BME280;3695;53.330;9.876;2022-11-20T11:49:17;102219.28;;;2.56;100.00
7309;BME280;3695;53.330;9.876;2022-11-20T11:51:58;102222.22;;;2.52;100.00
7309;BME280;3695;53.330;9.876;2022-11-20T11:54:31;102190.50;;;2.27;100.00
7309;BME280;3695;53.330;9.876;2022-11-20T11:57:07;102208.00;;;2.52;100.00
7309;BME280;3695;53.330;9.876;2022-11-20T11:59:51;102236.25;;;2.87;100.00
7309;BME280;3695;53.330;9.876;2022-11-20T12:02:29;102224.97;;;3.13;100.00
7309;BME280;3695;53.330;9.876;2022-11-20T12:05:02;102202.97;;;3.20;100.00
7309;BME280;3695;53.330;9.876;2022-11-20T12:07:38;102188.41;;;3.43;100.00
7309;BME280;3695;53.330;9.876;2022-11-20T12:10:14;102167.84;;;3.72;100.00
7309;BME280;3695;53.330;9.876;2022-11-20T12:12:44;102111.13;;;3.87;100.00
7309;BME280;3695;53.330;9.876;2022-11-20T12:15:16;102041.97;;;3.52;100.00
7309;BME280;3695;53.330;9.876;2022-11-20T12:17:46;101981.19;;;3.13;100.00
7309;BME280;3695;53.330;9.876;2022-11-20T12:20:14;101974.56;;;3.37;100.00
7309;BME280;3695;53.330;9.876;2022-11-20T12:22:47;101936.22;;;3.17;100.00
7309;BME280;3695;53.330;9.876;2022-11-20T12:25:20;101914.81;;;2.98;100.00
7309;BME280;3695;53.330;9.876;2022-11-20T12:28:10;101903.50;;;2.75;100.00
7309;BME280;3695;53.330;9.876;2022-11-20T12:30:51;101925.50;;;3.07;100.00
7309;BME280;3695;53.330;9.876;2022-11-20T12:33:36;101919.00;;;3.20;100.00
7309;BME280;3695;53.330;9.876;2022-11-20T12:36:16;101878.72;;;2.92;100.00
7309;BME280;3695;53.330;9.876;2022-11-20T12:38:55;101872.81;;;2.98;100.00
7309;BME280;3695;53.330;9.876;2022-11-20T12:41:37;101848.81;;;3.06;100.00
7309;BME280;3695;53.330;9.876;2022-11-20T12:44:43;101816.03;;;2.85;100.00
7309;BME280;3695;53.330;9.876;2022-11-20T12:47:48;101808.25;;;2.72;100.00
7309;BME280;3695;53.330;9.876;2022-11-20T12:50:23;101814.44;;;2.82;100.00
7309;BME280;3695;53.330;9.876;2022-11-20T12:52:57;101817.84;;;2.84;100.00
7309;BME280;3695;53.330;9.876;2022-11-20T12:55:40;101816.72;;;2.97;100.00
7309;BME280;3695;53.330;9.876;2022-11-20T12:58:12;101808.13;;;2.64;100.00
7309;BME280;3695;53.330;9.876;2022-11-20T13:00:52;101813.47;;;2.74;100.00
7309;BME280;3695;53.330;9.876;2022-11-20T13:03:34;101826.28;;;2.99;100.00
7309;BME280;3695;53.330;9.876;2022-11-20T13:06:11;101828.69;;;2.93;100.00
7309;BME280;3695;53.330;9.876;2022-11-20T13:08:42;101820.38;;;2.76;100.00
7309;BME280;3695;53.330;9.876;2022-11-20T13:11:16;101820.53;;;2.65;100.00
7309;BME280;3695;53.330;9.876;2022-11-20T13:14:01;101826.88;;;2.74;100.00
7309;BME280;3695;53.330;9.876;2022-11-20T13:16:35;101824.06;;;2.56;100.00
7309;BME280;3695;53.330;9.876;2022-11-20T13:19:03;101839.56;;;2.91;100.00
7309;BME280;3695;53.330;9.876;2022-11-20T13:21:38;101847.16;;;2.86;100.00
7309;BME280;3695;53.330;9.876;2022-11-20T13:24:19;101837.28;;;2.96;100.00